sensor_id;sensor_type;location;lat;lon;timestamp;P1;durP1;ratioP1;P2;durP2;ratioP2
29958;SDS011;16815;51.100;6.516;2022-08-18T00:00:12;37.03;;;33.03;;
29958;SDS011;16815;51.100;6.516;2022-08-18T00:02:39;39.50;;;34.50;;
29958;SDS011;16815;51.100;6.516;2022-08-18T00:05:05;37.10;;;32.67;;
29958;SDS011;16815;51.100;6.516;2022-08-18T00:07:32;37.90;;;33.70;;
29958;SDS011;16815;51.100;6.516;2022-08-18T00:09:59;38.33;;;34.17;;
29958;SDS011;16815;51.100;6.516;2022-08-18T00:12:39;36.80;;;32.80;;
29958;SDS011;16815;51.100;6.516;2022-08-18T00:15:06;39.53;;;35.40;;
29958;SDS011;16815;51.100;6.516;2022-08-18T00:17:33;37.43;;;33.33;;
29958;SDS011;16815;51.100;6.516;2022-08-18T00:19:59;42.43;;;36.50;;
29958;SDS011;16815;51.100;6.516;2022-08-18T00:22:25;42.57;;;37.90;;
29958;SDS011;16815;51.100;6.516;2022-08-18T00:24:52;40.67;;;36.23;;
29958;SDS011;16815;51.100;6.516;2022-08-18T00:27:20;40.13;;;35.67;;
29958;SDS011;16815;51.100;6.516;2022-08-18T00:29:46;41.03;;;36.63;;
29958;SDS011;16815;51.100;6.516;2022-08-18T00:32:13;43.47;;;38.73;;
29958;SDS011;16815;51.100;6.516;2022-08-18T00:34:40;43.50;;;37.90;;
29958;SDS011;16815;51.100;6.516;2022-08-18T00:37:06;42.97;;;36.73;;
29958;SDS011;16815;51.100;6.516;2022-08-18T00:39:32;42.67;;;37.33;;
29958;SDS011;16815;51.100;6.516;2022-08-18T00:41:59;45.60;;;37.20;;
29958;SDS011;16815;51.100;6.516;2022-08-18T00:44:25;41.50;;;37.07;;
29958;SDS011;16815;51.100;6.516;2022-08-18T00:46:51;43.20;;;37.30;;
29958;SDS011;16815;51.100;6.516;2022-08-18T00:49:16;41.47;;;36.17;;
29958;SDS011;16815;51.100;6.516;2022-08-18T00:51:46;43.57;;;39.00;;
29958;SDS011;16815;51.100;6.516;2022-08-18T00:54:23;45.43;;;39.30;;
29958;SDS011;16815;51.100;6.516;2022-08-18T00:56:52;43.83;;;39.10;;
29958;SDS011;16815;51.100;6.516;2022-08-18T00:59:25;39.13;;;34.47;;
29958;SDS011;16815;51.100;6.516;2022-08-18T01:01:53;45.23;;;37.30;;
29958;SDS011;16815;51.100;6.516;2022-08-18T01:04:37;48.80;;;39.50;;
29958;SDS011;16815;51.100;6.516;2022-08-18T01:07:06;48.07;;;37.67;;
29958;SDS011;16815;51.100;6.516;2022-08-18T01:09:33;46.33;;;36.93;;
29958;SDS011;16815;51.100;6.516;2022-08-18T01:11:59;47.27;;;39.50;;
29958;SDS011;16815;51.100;6.516;2022-08-18T01:14:28;50.83;;;40.73;;
29958;SDS011;16815;51.100;6.516;2022-08-18T01:16:54;48.17;;;40.43;;
29958;SDS011;16815;51.100;6.516;2022-08-18T01:19:39;49.23;;;39.30;;
29958;SDS011;16815;51.100;6.516;2022-08-18T01:22:33;47.73;;;38.90;;
29958;SDS011;16815;51.100;6.516;2022-08-18T01:25:00;58.27;;;44.87;;
29958;SDS011;16815;51.100;6.516;2022-08-18T01:27:45;55.90;;;44.83;;
29958;SDS011;16815;51.100;6.516;2022-08-18T01:30:13;60.00;;;44.70;;
29958;SDS011;16815;51.100;6.516;2022-08-18T01:32:40;78.27;;;46.33;;
29958;SDS011;16815;51.100;6.516;2022-08-18T01:35:09;59.40;;;47.30;;
29958;SDS011;16815;51.100;6.516;2022-08-18T01:37:36;82.93;;;44.50;;
29958;SDS011;16815;51.100;6.516;2022-08-18T01:40:06;102.03;;;46.40;;
29958;SDS011;16815;51.100;6.516;2022-08-18T01:42:33;105.57;;;42.83;;
29958;SDS011;16815;51.100;6.516;2022-08-18T01:44:59;103.50;;;43.53;;
29958;SDS011;16815;51.100;6.516;2022-08-18T01:47:27;55.43;;;42.50;;
29958;SDS011;16815;51.100;6.516;2022-08-18T01:49:55;54.67;;;41.57;;
29958;SDS011;16815;51.100;6.516;2022-08-18T01:52:22;54.97;;;41.07;;
29958;SDS011;16815;51.100;6.516;2022-08-18T01:54:48;54.37;;;39.37;;
29958;SDS011;16815;51.100;6.516;2022-08-18T01:57:15;49.90;;;38.97;;
29958;SDS011;16815;51.100;6.516;2022-08-18T01:59:41;52.03;;;40.27;;
29958;SDS011;16815;51.100;6.516;2022-08-18T02:02:08;50.90;;;37.00;;
29958;SDS011;16815;51.100;6.516;2022-08-18T02:04:34;48.67;;;36.90;;
29958;SDS011;16815;51.100;6.516;2022-08-18T02:07:01;53.60;;;38.83;;
29958;SDS011;16815;51.100;6.516;2022-08-18T02:09:28;44.70;;;36.17;;
29958;SDS011;16815;51.100;6.516;2022-08-18T02:11:54;48.57;;;39.43;;
29958;SDS011;16815;51.100;6.516;2022-08-18T02:14:21;45.50;;;38.77;;
29958;SDS011;16815;51.100;6.516;2022-08-18T02:16:46;50.20;;;40.57;;
29958;SDS011;16815;51.100;6.516;2022-08-18T02:19:12;57.00;;;40.83;;
29958;SDS011;16815;51.100;6.516;2022-08-18T02:21:38;47.20;;;39.43;;
29958;SDS011;16815;51.100;6.516;2022-08-18T02:24:04;51.17;;;41.97;;
29958;SDS011;16815;51.100;6.516;2022-08-18T02:26:30;50.73;;;38.47;;
29958;SDS011;16815;51.100;6.516;2022-08-18T02:28:56;50.40;;;40.87;;
29958;SDS011;16815;51.100;6.516;2022-08-18T02:31:23;52.87;;;42.37;;
29958;SDS011;16815;51.100;6.516;2022-08-18T02:33:49;53.70;;;40.97;;
29958;SDS011;16815;51.100;6.516;2022-08-18T02:36:15;57.53;;;44.03;;
29958;SDS011;16815;51.100;6.516;2022-08-18T02:38:42;63.00;;;44.33;;
29958;SDS011;16815;51.100;6.516;2022-08-18T02:41:09;54.80;;;43.17;;
29958;SDS011;16815;51.100;6.516;2022-08-18T02:43:36;58.97;;;45.60;;
29958;SDS011;16815;51.100;6.516;2022-08-18T02:46:03;66.40;;;47.60;;
29958;SDS011;16815;51.100;6.516;2022-08-18T02:48:29;64.77;;;45.53;;
29958;SDS011;16815;51.100;6.516;2022-08-18T02:51:03;62.37;;;46.93;;
29958;SDS011;16815;51.100;6.516;2022-08-18T02:53:29;62.27;;;44.27;;
29958;SDS011;16815;51.100;6.516;2022-08-18T02:56:03;57.47;;;42.43;;
29958;SDS011;16815;51.100;6.516;2022-08-18T02:58:34;71.87;;;47.53;;
29958;SDS011;16815;51.100;6.516;2022-08-18T03:01:00;66.87;;;47.93;;
29958;SDS011;16815;51.100;6.516;2022-08-18T03:03:26;64.40;;;44.70;;
29958;SDS011;16815;51.100;6.516;2022-08-18T03:05:52;63.53;;;47.07;;
29958;SDS011;16815;51.100;6.516;2022-08-18T03:08:18;62.77;;;47.10;;
29958;SDS011;16815;51.100;6.516;2022-08-18T03:10:44;58.20;;;44.20;;
29958;SDS011;16815;51.100;6.516;2022-08-18T03:13:10;55.40;;;43.83;;
29958;SDS011;16815;51.100;6.516;2022-08-18T03:15:36;56.40;;;44.17;;
29958;SDS011;16815;51.100;6.516;2022-08-18T03:18:01;55.47;;;42.07;;
29958;SDS011;16815;51.100;6.516;2022-08-18T03:20:27;60.93;;;44.63;;
29958;SDS011;16815;51.100;6.516;2022-08-18T03:22:53;52.33;;;40.00;;
29958;SDS011;16815;51.100;6.516;2022-08-18T03:25:19;53.17;;;39.40;;
29958;SDS011;16815;51.100;6.516;2022-08-18T03:27:45;63.63;;;44.37;;
29958;SDS011;16815;51.100;6.516;2022-08-18T03:30:11;60.77;;;43.17;;
29958;SDS011;16815;51.100;6.516;2022-08-18T03:32:37;56.53;;;41.50;;
29958;SDS011;16815;51.100;6.516;2022-08-18T03:35:03;55.37;;;40.20;;
29958;SDS011;16815;51.100;6.516;2022-08-18T03:37:29;59.20;;;39.57;;
29958;SDS011;16815;51.100;6.516;2022-08-18T03:39:56;51.50;;;38.10;;
29958;SDS011;16815;51.100;6.516;2022-08-18T03:42:21;52.27;;;38.07;;
29958;SDS011;16815;51.100;6.516;2022-08-18T03:44:47;47.93;;;36.47;;
29958;SDS011;16815;51.100;6.516;2022-08-18T03:47:13;48.90;;;35.37;;
29958;SDS011;16815;51.100;6.516;2022-08-18T03:49:39;47.10;;;34.90;;
29958;SDS011;16815;51.100;6.516;2022-08-18T03:52:07;44.47;;;35.40;;
29958;SDS011;16815;51.100;6.516;2022-08-18T03:54:33;46.13;;;35.43;;
29958;SDS011;16815;51.100;6.516;2022-08-18T03:57:00;42.00;;;33.90;;
29958;SDS011;16815;51.100;6.516;2022-08-18T03:59:26;45.50;;;35.60;;
29958;SDS011;16815;51.100;6.516;2022-08-18T04:01:55;44.87;;;34.53;;
29958;SDS011;16815;51.100;6.516;2022-08-18T04:04:24;43.30;;;34.00;;
29958;SDS011;16815;51.100;6.516;2022-08-18T04:06:52;43.83;;;32.93;;
29958;SDS011;16815;51.100;6.516;2022-08-18T04:09:19;42.87;;;32.90;;
29958;SDS011;16815;51.100;6.516;2022-08-18T04:11:46;43.77;;;34.47;;
29958;SDS011;16815;51.100;6.516;2022-08-18T04:14:13;42.60;;;33.67;;
29958;SDS011;16815;51.100;6.516;2022-08-18T04:16:39;46.03;;;35.70;;
29958;SDS011;16815;51.100;6.516;2022-08-18T04:19:06;42.37;;;32.93;;
29958;SDS011;16815;51.100;6.516;2022-08-18T04:21:34;43.93;;;33.53;;
29958;SDS011;16815;51.100;6.516;2022-08-18T04:24:01;45.10;;;34.03;;
29958;SDS011;16815;51.100;6.516;2022-08-18T04:26:31;41.77;;;32.17;;
29958;SDS011;16815;51.100;6.516;2022-08-18T04:28:58;48.23;;;35.63;;
29958;SDS011;16815;51.100;6.516;2022-08-18T04:31:28;46.63;;;35.67;;
29958;SDS011;16815;51.100;6.516;2022-08-18T04:33:55;45.37;;;33.87;;
29958;SDS011;16815;51.100;6.516;2022-08-18T04:36:22;45.60;;;34.60;;
29958;SDS011;16815;51.100;6.516;2022-08-18T04:38:48;45.77;;;35.73;;
29958;SDS011;16815;51.100;6.516;2022-08-18T04:41:14;48.90;;;36.83;;
29958;SDS011;16815;51.100;6.516;2022-08-18T04:43:40;49.80;;;37.67;;
29958;SDS011;16815;51.100;6.516;2022-08-18T04:46:07;48.53;;;35.57;;
29958;SDS011;16815;51.100;6.516;2022-08-18T04:48:34;48.40;;;36.30;;
29958;SDS011;16815;51.100;6.516;2022-08-18T04:51:10;49.40;;;36.83;;
29958;SDS011;16815;51.100;6.516;2022-08-18T04:53:37;48.97;;;36.43;;
29958;SDS011;16815;51.100;6.516;2022-08-18T04:56:13;50.37;;;36.40;;
29958;SDS011;16815;51.100;6.516;2022-08-18T04:58:39;49.57;;;36.00;;
29958;SDS011;16815;51.100;6.516;2022-08-18T05:01:05;46.43;;;34.77;;
29958;SDS011;16815;51.100;6.516;2022-08-18T05:03:31;41.30;;;32.93;;
29958;SDS011;16815;51.100;6.516;2022-08-18T05:05:57;48.37;;;35.40;;
29958;SDS011;16815;51.100;6.516;2022-08-18T05:08:24;48.90;;;35.60;;
29958;SDS011;16815;51.100;6.516;2022-08-18T05:10:54;52.17;;;36.13;;
29958;SDS011;16815;51.100;6.516;2022-08-18T05:13:21;40.33;;;32.20;;
29958;SDS011;16815;51.100;6.516;2022-08-18T05:15:57;50.77;;;34.87;;
29958;SDS011;16815;51.100;6.516;2022-08-18T05:18:30;46.13;;;34.00;;
29958;SDS011;16815;51.100;6.516;2022-08-18T05:20:56;44.83;;;33.03;;
29958;SDS011;16815;51.100;6.516;2022-08-18T05:23:24;46.97;;;34.00;;
29958;SDS011;16815;51.100;6.516;2022-08-18T05:25:57;43.83;;;34.13;;
29958;SDS011;16815;51.100;6.516;2022-08-18T05:28:24;43.80;;;33.80;;
29958;SDS011;16815;51.100;6.516;2022-08-18T05:30:50;43.67;;;32.73;;
29958;SDS011;16815;51.100;6.516;2022-08-18T05:33:16;47.50;;;33.60;;
29958;SDS011;16815;51.100;6.516;2022-08-18T05:35:43;42.87;;;33.23;;
29958;SDS011;16815;51.100;6.516;2022-08-18T05:41:03;45.67;;;34.83;;
29958;SDS011;16815;51.100;6.516;2022-08-18T05:43:31;42.77;;;32.07;;
29958;SDS011;16815;51.100;6.516;2022-08-18T05:45:58;40.37;;;31.57;;
29958;SDS011;16815;51.100;6.516;2022-08-18T05:48:26;45.13;;;33.47;;
29958;SDS011;16815;51.100;6.516;2022-08-18T05:50:52;39.77;;;31.43;;
29958;SDS011;16815;51.100;6.516;2022-08-18T05:53:19;41.67;;;31.70;;
29958;SDS011;16815;51.100;6.516;2022-08-18T05:56:05;45.87;;;33.40;;
29958;SDS011;16815;51.100;6.516;2022-08-18T05:58:52;41.53;;;31.73;;
29958;SDS011;16815;51.100;6.516;2022-08-18T06:01:24;38.30;;;29.63;;
29958;SDS011;16815;51.100;6.516;2022-08-18T06:04:03;39.17;;;31.50;;
29958;SDS011;16815;51.100;6.516;2022-08-18T06:06:30;40.40;;;31.47;;
29958;SDS011;16815;51.100;6.516;2022-08-18T06:09:02;46.13;;;32.90;;
29958;SDS011;16815;51.100;6.516;2022-08-18T06:11:29;41.27;;;31.67;;
29958;SDS011;16815;51.100;6.516;2022-08-18T06:13:56;40.37;;;31.00;;
29958;SDS011;16815;51.100;6.516;2022-08-18T06:19:02;38.07;;;28.80;;
29958;SDS011;16815;51.100;6.516;2022-08-18T06:24:05;41.73;;;29.93;;
29958;SDS011;16815;51.100;6.516;2022-08-18T06:26:44;40.43;;;30.50;;
29958;SDS011;16815;51.100;6.516;2022-08-18T06:29:29;42.67;;;31.50;;
29958;SDS011;16815;51.100;6.516;2022-08-18T06:32:05;49.13;;;32.10;;
29958;SDS011;16815;51.100;6.516;2022-08-18T06:34:43;43.07;;;31.27;;
29958;SDS011;16815;51.100;6.516;2022-08-18T06:42:08;37.30;;;29.83;;
29958;SDS011;16815;51.100;6.516;2022-08-18T06:44:45;45.47;;;30.70;;
29958;SDS011;16815;51.100;6.516;2022-08-18T06:52:34;42.47;;;27.70;;
29958;SDS011;16815;51.100;6.516;2022-08-18T06:55:08;39.17;;;28.97;;
29958;SDS011;16815;51.100;6.516;2022-08-18T06:57:38;37.17;;;29.50;;
29958;SDS011;16815;51.100;6.516;2022-08-18T07:02:42;33.03;;;27.73;;
29958;SDS011;16815;51.100;6.516;2022-08-18T07:07:39;32.67;;;26.50;;
29958;SDS011;16815;51.100;6.516;2022-08-18T07:10:08;36.77;;;25.60;;
29958;SDS011;16815;51.100;6.516;2022-08-18T07:12:51;32.03;;;27.30;;
29958;SDS011;16815;51.100;6.516;2022-08-18T07:15:30;32.93;;;27.20;;
29958;SDS011;16815;51.100;6.516;2022-08-18T07:18:02;32.43;;;26.40;;
29958;SDS011;16815;51.100;6.516;2022-08-18T07:20:29;30.83;;;25.53;;
29958;SDS011;16815;51.100;6.516;2022-08-18T07:22:56;31.40;;;26.10;;
29958;SDS011;16815;51.100;6.516;2022-08-18T07:25:25;30.63;;;24.80;;
29958;SDS011;16815;51.100;6.516;2022-08-18T07:27:51;33.97;;;26.67;;
29958;SDS011;16815;51.100;6.516;2022-08-18T07:32:47;35.33;;;27.93;;
29958;SDS011;16815;51.100;6.516;2022-08-18T07:35:17;32.17;;;26.07;;
29958;SDS011;16815;51.100;6.516;2022-08-18T07:37:47;29.63;;;24.93;;
29958;SDS011;16815;51.100;6.516;2022-08-18T07:40:57;28.33;;;24.07;;
29958;SDS011;16815;51.100;6.516;2022-08-18T07:43:15;29.10;;;25.03;;
29958;SDS011;16815;51.100;6.516;2022-08-18T07:45:43;27.63;;;24.00;;
29958;SDS011;16815;51.100;6.516;2022-08-18T07:55:50;30.17;;;25.90;;
29958;SDS011;16815;51.100;6.516;2022-08-18T07:58:30;32.63;;;26.93;;
29958;SDS011;16815;51.100;6.516;2022-08-18T08:01:02;31.37;;;26.13;;
29958;SDS011;16815;51.100;6.516;2022-08-18T08:03:52;29.53;;;24.87;;
29958;SDS011;16815;51.100;6.516;2022-08-18T08:06:22;27.30;;;23.93;;
29958;SDS011;16815;51.100;6.516;2022-08-18T08:11:46;30.33;;;25.57;;
29958;SDS011;16815;51.100;6.516;2022-08-18T08:21:59;32.27;;;27.03;;
29958;SDS011;16815;51.100;6.516;2022-08-18T08:27:14;27.67;;;23.87;;
29958;SDS011;16815;51.100;6.516;2022-08-18T08:29:58;25.80;;;22.47;;
29958;SDS011;16815;51.100;6.516;2022-08-18T08:32:31;24.90;;;21.60;;
29958;SDS011;16815;51.100;6.516;2022-08-18T08:35:00;22.53;;;19.30;;
29958;SDS011;16815;51.100;6.516;2022-08-18T08:37:32;22.03;;;18.00;;
29958;SDS011;16815;51.100;6.516;2022-08-18T08:40:02;19.13;;;16.67;;
29958;SDS011;16815;51.100;6.516;2022-08-18T08:45:28;15.47;;;13.80;;
29958;SDS011;16815;51.100;6.516;2022-08-18T08:50:28;16.43;;;11.97;;
29958;SDS011;16815;51.100;6.516;2022-08-18T08:53:04;12.37;;;11.17;;
29958;SDS011;16815;51.100;6.516;2022-08-18T08:55:32;12.27;;;11.07;;
29958;SDS011;16815;51.100;6.516;2022-08-18T09:00:25;12.43;;;11.23;;
29958;SDS011;16815;51.100;6.516;2022-08-18T09:21:05;9.93;;;8.90;;
29958;SDS011;16815;51.100;6.516;2022-08-18T09:23:37;9.70;;;8.55;;
29958;SDS011;16815;51.100;6.516;2022-08-18T09:26:20;8.35;;;7.55;;
29958;SDS011;16815;51.100;6.516;2022-08-18T09:28:54;9.43;;;7.90;;
29958;SDS011;16815;51.100;6.516;2022-08-18T09:31:21;9.18;;;8.15;;
29958;SDS011;16815;51.100;6.516;2022-08-18T09:33:54;8.95;;;8.05;;
29958;SDS011;16815;51.100;6.516;2022-08-18T09:36:35;9.10;;;8.20;;
29958;SDS011;16815;51.100;6.516;2022-08-18T09:42:07;8.73;;;7.82;;
29958;SDS011;16815;51.100;6.516;2022-08-18T09:49:49;9.32;;;8.38;;
29958;SDS011;16815;51.100;6.516;2022-08-18T09:54:53;8.20;;;7.40;;
29958;SDS011;16815;51.100;6.516;2022-08-18T09:57:25;7.47;;;6.78;;
29958;SDS011;16815;51.100;6.516;2022-08-18T10:00:36;8.05;;;7.25;;
29958;SDS011;16815;51.100;6.516;2022-08-18T10:07:50;10.20;;;7.55;;
29958;SDS011;16815;51.100;6.516;2022-08-18T10:10:20;7.47;;;6.78;;
29958;SDS011;16815;51.100;6.516;2022-08-18T10:15:28;7.55;;;6.85;;
29958;SDS011;16815;51.100;6.516;2022-08-18T10:18:04;9.38;;;6.82;;
29958;SDS011;16815;51.100;6.516;2022-08-18T10:23:16;7.25;;;6.55;;
29958;SDS011;16815;51.100;6.516;2022-08-18T10:25:58;6.97;;;6.28;;
29958;SDS011;16815;51.100;6.516;2022-08-18T10:31:12;11.18;;;7.57;;
29958;SDS011;16815;51.100;6.516;2022-08-18T10:36:34;7.45;;;6.82;;
29958;SDS011;16815;51.100;6.516;2022-08-18T10:39:05;10.93;;;6.65;;
29958;SDS011;16815;51.100;6.516;2022-08-18T10:41:31;8.65;;;5.60;;
29958;SDS011;16815;51.100;6.516;2022-08-18T10:43:59;8.35;;;7.20;;
29958;SDS011;16815;51.100;6.516;2022-08-18T10:46:39;8.30;;;7.50;;
29958;SDS011;16815;51.100;6.516;2022-08-18T10:49:16;7.30;;;6.55;;
29958;SDS011;16815;51.100;6.516;2022-08-18T10:54:22;10.02;;;6.68;;
29958;SDS011;16815;51.100;6.516;2022-08-18T10:56:54;7.53;;;6.57;;
29958;SDS011;16815;51.100;6.516;2022-08-18T11:07:23;7.05;;;6.32;;
29958;SDS011;16815;51.100;6.516;2022-08-18T11:09:51;6.78;;;5.85;;
29958;SDS011;16815;51.100;6.516;2022-08-18T11:12:35;7.45;;;6.47;;
29958;SDS011;16815;51.100;6.516;2022-08-18T11:15:05;7.53;;;5.80;;
29958;SDS011;16815;51.100;6.516;2022-08-18T11:17:43;6.50;;;4.95;;
29958;SDS011;16815;51.100;6.516;2022-08-18T11:20:12;5.97;;;5.38;;
29958;SDS011;16815;51.100;6.516;2022-08-18T11:22:43;6.03;;;4.72;;
29958;SDS011;16815;51.100;6.516;2022-08-18T11:25:32;6.68;;;5.55;;
29958;SDS011;16815;51.100;6.516;2022-08-18T11:27:59;5.35;;;4.85;;
29958;SDS011;16815;51.100;6.516;2022-08-18T11:30:27;5.82;;;5.32;;
29958;SDS011;16815;51.100;6.516;2022-08-18T11:32:54;6.03;;;5.43;;
29958;SDS011;16815;51.100;6.516;2022-08-18T11:35:28;5.97;;;5.40;;
29958;SDS011;16815;51.100;6.516;2022-08-18T11:37:56;5.05;;;4.55;;
29958;SDS011;16815;51.100;6.516;2022-08-18T11:40:29;6.07;;;5.22;;
29958;SDS011;16815;51.100;6.516;2022-08-18T11:43:40;6.40;;;4.90;;
29958;SDS011;16815;51.100;6.516;2022-08-18T11:45:48;5.78;;;5.15;;
29958;SDS011;16815;51.100;6.516;2022-08-18T11:58:44;5.30;;;4.47;;
29958;SDS011;16815;51.100;6.516;2022-08-18T12:01:26;6.07;;;4.28;;
29958;SDS011;16815;51.100;6.516;2022-08-18T12:03:54;6.18;;;4.45;;
29958;SDS011;16815;51.100;6.516;2022-08-18T12:06:24;5.90;;;4.65;;
29958;SDS011;16815;51.100;6.516;2022-08-18T12:08:55;4.75;;;4.35;;
29958;SDS011;16815;51.100;6.516;2022-08-18T12:11:23;4.40;;;4.00;;
29958;SDS011;16815;51.100;6.516;2022-08-18T12:13:57;5.13;;;4.63;;
29958;SDS011;16815;51.100;6.516;2022-08-18T12:16:32;4.53;;;4.10;;
29958;SDS011;16815;51.100;6.516;2022-08-18T12:18:58;4.40;;;4.00;;
29958;SDS011;16815;51.100;6.516;2022-08-18T12:21:24;4.57;;;4.13;;
29958;SDS011;16815;51.100;6.516;2022-08-18T12:23:50;6.68;;;3.80;;
29958;SDS011;16815;51.100;6.516;2022-08-18T12:26:16;4.10;;;3.45;;
29958;SDS011;16815;51.100;6.516;2022-08-18T12:28:44;4.03;;;3.65;;
29958;SDS011;16815;51.100;6.516;2022-08-18T12:31:10;5.70;;;4.07;;
29958;SDS011;16815;51.100;6.516;2022-08-18T12:33:36;4.35;;;3.95;;
29958;SDS011;16815;51.100;6.516;2022-08-18T12:36:02;4.28;;;3.83;;
29958;SDS011;16815;51.100;6.516;2022-08-18T12:38:30;4.05;;;3.65;;
29958;SDS011;16815;51.100;6.516;2022-08-18T12:40:56;5.60;;;3.55;;
29958;SDS011;16815;51.100;6.516;2022-08-18T12:43:22;3.47;;;3.20;;
29958;SDS011;16815;51.100;6.516;2022-08-18T12:45:48;4.28;;;3.42;;
29958;SDS011;16815;51.100;6.516;2022-08-18T12:48:14;5.25;;;3.72;;
29958;SDS011;16815;51.100;6.516;2022-08-18T12:50:41;4.05;;;3.47;;
29958;SDS011;16815;51.100;6.516;2022-08-18T12:53:07;5.50;;;3.60;;
29958;SDS011;16815;51.100;6.516;2022-08-18T12:55:34;3.95;;;3.42;;
29958;SDS011;16815;51.100;6.516;2022-08-18T12:58:01;3.67;;;3.38;;
29958;SDS011;16815;51.100;6.516;2022-08-18T13:00:29;5.50;;;3.65;;
29958;SDS011;16815;51.100;6.516;2022-08-18T13:02:55;3.78;;;3.42;;
29958;SDS011;16815;51.100;6.516;2022-08-18T13:05:21;5.00;;;3.35;;
29958;SDS011;16815;51.100;6.516;2022-08-18T13:07:47;3.63;;;3.33;;
29958;SDS011;16815;51.100;6.516;2022-08-18T13:10:13;7.93;;;4.50;;
29958;SDS011;16815;51.100;6.516;2022-08-18T13:12:39;4.57;;;4.07;;
29958;SDS011;16815;51.100;6.516;2022-08-18T13:15:05;4.43;;;3.55;;
29958;SDS011;16815;51.100;6.516;2022-08-18T13:17:35;4.50;;;3.53;;
29958;SDS011;16815;51.100;6.516;2022-08-18T13:20:03;4.00;;;3.70;;
29958;SDS011;16815;51.100;6.516;2022-08-18T13:22:31;4.85;;;4.18;;
29958;SDS011;16815;51.100;6.516;2022-08-18T13:24:56;3.85;;;3.53;;
29958;SDS011;16815;51.100;6.516;2022-08-18T13:27:23;4.25;;;3.60;;
29958;SDS011;16815;51.100;6.516;2022-08-18T13:29:49;4.32;;;3.92;;
29958;SDS011;16815;51.100;6.516;2022-08-18T13:32:15;4.30;;;3.78;;
29958;SDS011;16815;51.100;6.516;2022-08-18T13:34:42;5.13;;;3.90;;
29958;SDS011;16815;51.100;6.516;2022-08-18T13:37:08;4.03;;;3.72;;
29958;SDS011;16815;51.100;6.516;2022-08-18T13:39:34;4.82;;;4.00;;
29958;SDS011;16815;51.100;6.516;2022-08-18T13:42:00;4.45;;;4.05;;
29958;SDS011;16815;51.100;6.516;2022-08-18T13:44:26;6.07;;;5.07;;
29958;SDS011;16815;51.100;6.516;2022-08-18T13:46:53;4.57;;;3.90;;
29958;SDS011;16815;51.100;6.516;2022-08-18T13:49:20;4.50;;;4.10;;
29958;SDS011;16815;51.100;6.516;2022-08-18T13:51:47;6.47;;;4.43;;
29958;SDS011;16815;51.100;6.516;2022-08-18T13:54:17;5.25;;;4.05;;
29958;SDS011;16815;51.100;6.516;2022-08-18T13:56:44;4.60;;;3.53;;
29958;SDS011;16815;51.100;6.516;2022-08-18T13:59:11;4.13;;;3.50;;
29958;SDS011;16815;51.100;6.516;2022-08-18T14:01:37;3.47;;;3.00;;
29958;SDS011;16815;51.100;6.516;2022-08-18T14:04:03;5.25;;;3.47;;
29958;SDS011;16815;51.100;6.516;2022-08-18T14:06:29;5.00;;;3.70;;
29958;SDS011;16815;51.100;6.516;2022-08-18T14:08:55;4.25;;;3.85;;
29958;SDS011;16815;51.100;6.516;2022-08-18T14:11:24;3.78;;;3.40;;
29958;SDS011;16815;51.100;6.516;2022-08-18T14:13:52;3.65;;;3.25;;
29958;SDS011;16815;51.100;6.516;2022-08-18T14:16:18;4.00;;;3.53;;
29958;SDS011;16815;51.100;6.516;2022-08-18T14:18:46;3.78;;;3.28;;
29958;SDS011;16815;51.100;6.516;2022-08-18T14:21:32;4.55;;;3.65;;
29958;SDS011;16815;51.100;6.516;2022-08-18T14:24:17;3.67;;;3.10;;
29958;SDS011;16815;51.100;6.516;2022-08-18T14:27:01;4.03;;;3.00;;
29958;SDS011;16815;51.100;6.516;2022-08-18T14:29:27;4.75;;;3.42;;
29958;SDS011;16815;51.100;6.516;2022-08-18T14:31:53;3.42;;;3.17;;
29958;SDS011;16815;51.100;6.516;2022-08-18T14:34:19;3.28;;;2.97;;
29958;SDS011;16815;51.100;6.516;2022-08-18T14:36:45;3.58;;;3.28;;
29958;SDS011;16815;51.100;6.516;2022-08-18T14:39:11;3.05;;;2.80;;
29958;SDS011;16815;51.100;6.516;2022-08-18T14:41:39;4.78;;;3.15;;
29958;SDS011;16815;51.100;6.516;2022-08-18T14:44:05;3.67;;;3.38;;
29958;SDS011;16815;51.100;6.516;2022-08-18T14:46:31;3.42;;;3.00;;
29958;SDS011;16815;51.100;6.516;2022-08-18T14:48:57;5.25;;;3.58;;
29958;SDS011;16815;51.100;6.516;2022-08-18T14:51:24;4.90;;;2.83;;
29958;SDS011;16815;51.100;6.516;2022-08-18T14:53:50;3.20;;;2.90;;
29958;SDS011;16815;51.100;6.516;2022-08-18T14:56:16;3.40;;;3.10;;
29958;SDS011;16815;51.100;6.516;2022-08-18T14:58:42;3.60;;;3.30;;
29958;SDS011;16815;51.100;6.516;2022-08-18T15:01:09;4.35;;;3.20;;
29958;SDS011;16815;51.100;6.516;2022-08-18T15:03:37;3.28;;;2.97;;
29958;SDS011;16815;51.100;6.516;2022-08-18T15:06:04;4.45;;;3.70;;
29958;SDS011;16815;51.100;6.516;2022-08-18T15:08:32;4.60;;;3.42;;
29958;SDS011;16815;51.100;6.516;2022-08-18T15:10:59;3.50;;;3.20;;
29958;SDS011;16815;51.100;6.516;2022-08-18T15:13:25;4.70;;;2.95;;
29958;SDS011;16815;51.100;6.516;2022-08-18T15:15:51;3.58;;;3.25;;
29958;SDS011;16815;51.100;6.516;2022-08-18T15:18:18;3.22;;;2.80;;
29958;SDS011;16815;51.100;6.516;2022-08-18T15:20:44;4.70;;;3.50;;
29958;SDS011;16815;51.100;6.516;2022-08-18T15:23:29;3.25;;;2.97;;
29958;SDS011;16815;51.100;6.516;2022-08-18T15:26:16;6.13;;;3.25;;
29958;SDS011;16815;51.100;6.516;2022-08-18T15:28:43;4.00;;;3.20;;
29958;SDS011;16815;51.100;6.516;2022-08-18T15:31:09;3.45;;;3.15;;
29958;SDS011;16815;51.100;6.516;2022-08-18T15:33:35;3.25;;;2.90;;
29958;SDS011;16815;51.100;6.516;2022-08-18T15:36:01;4.10;;;3.10;;
29958;SDS011;16815;51.100;6.516;2022-08-18T15:38:28;4.22;;;3.33;;
29958;SDS011;16815;51.100;6.516;2022-08-18T15:40:57;3.35;;;3.05;;
29958;SDS011;16815;51.100;6.516;2022-08-18T15:43:27;3.10;;;2.80;;
29958;SDS011;16815;51.100;6.516;2022-08-18T15:45:54;5.32;;;3.05;;
29958;SDS011;16815;51.100;6.516;2022-08-18T15:48:21;3.53;;;3.22;;
29958;SDS011;16815;51.100;6.516;2022-08-18T15:50:48;3.30;;;3.00;;
29958;SDS011;16815;51.100;6.516;2022-08-18T15:53:15;3.40;;;3.10;;
29958;SDS011;16815;51.100;6.516;2022-08-18T15:55:42;6.85;;;3.70;;
29958;SDS011;16815;51.100;6.516;2022-08-18T15:58:08;3.20;;;3.00;;
29958;SDS011;16815;51.100;6.516;2022-08-18T16:00:35;5.15;;;3.28;;
29958;SDS011;16815;51.100;6.516;2022-08-18T16:03:02;3.50;;;3.20;;
29958;SDS011;16815;51.100;6.516;2022-08-18T16:05:31;5.13;;;3.58;;
29958;SDS011;16815;51.100;6.516;2022-08-18T16:07:59;4.35;;;3.13;;
29958;SDS011;16815;51.100;6.516;2022-08-18T16:10:26;3.63;;;3.33;;
29958;SDS011;16815;51.100;6.516;2022-08-18T16:12:52;3.88;;;3.45;;
29958;SDS011;16815;51.100;6.516;2022-08-18T16:15:20;3.88;;;3.50;;
29958;SDS011;16815;51.100;6.516;2022-08-18T16:17:46;3.38;;;2.95;;
29958;SDS011;16815;51.100;6.516;2022-08-18T16:20:12;5.43;;;3.00;;
29958;SDS011;16815;51.100;6.516;2022-08-18T16:22:39;4.07;;;3.28;;
29958;SDS011;16815;51.100;6.516;2022-08-18T16:25:06;6.97;;;3.70;;
29958;SDS011;16815;51.100;6.516;2022-08-18T16:27:35;4.00;;;3.00;;
29958;SDS011;16815;51.100;6.516;2022-08-18T16:30:05;3.90;;;3.55;;
29958;SDS011;16815;51.100;6.516;2022-08-18T16:32:32;4.47;;;2.90;;
29958;SDS011;16815;51.100;6.516;2022-08-18T16:34:58;8.32;;;4.45;;
29958;SDS011;16815;51.100;6.516;2022-08-18T16:37:24;4.13;;;3.17;;
29958;SDS011;16815;51.100;6.516;2022-08-18T16:39:51;3.63;;;3.08;;
29958;SDS011;16815;51.100;6.516;2022-08-18T16:42:17;4.85;;;3.63;;
29958;SDS011;16815;51.100;6.516;2022-08-18T16:44:43;2.85;;;2.65;;